Flight Track Log - Related Links

Times and Time Zones

All times are in EDT time to prevent confusion due to time zone crossing. See the EJA396 flight status page for this flight to view local times or setup timezone preferences in your user account.

Time Position Orientation Groundspeed Altitude Reporting Facility
EDT Latitude Longitude Course Direction KTS MPH feet Rate Location/Type
Tue 07:59:31 PM 34.7197 -92.2494 22° Northeast 145 167 1,100  Level Memphis Center
Tue 08:00:44 PM 34.7744 -92.2231 22° Northeast 231 266 6,100 3,744 Climbing Memphis Center
Tue 08:01:44 PM 34.7944 -92.1450 73° East 270 311 9,400 3,850 Climbing Memphis Center
Tue 08:02:44 PM 34.8122 -92.0594 76° East 299 344 13,800 3,300 Climbing Memphis Center
Tue 08:03:44 PM 34.8383 -91.9714 70° East 279 321 16,000 2,850 Climbing Memphis Center
Tue 08:04:44 PM 34.8750 -91.8758 65° Northeast 291 335 19,500 3,050 Climbing Memphis Center
Tue 08:05:44 PM 34.8783 -91.7772 88° East 284 327 22,100 2,250 Climbing Memphis Center
Tue 08:06:44 PM 34.8711 -91.6683 95° East 300 345 24,000 1,850 Climbing Memphis Center
Tue 08:07:44 PM 34.8619 -91.5492 95° East 336 387 25,800 1,700 Climbing Memphis Center
Tue 08:08:44 PM 34.8547 -91.4325 94° East 348 400 27,400 1,450 Climbing Memphis Center
Tue 08:09:44 PM 34.8492 -91.3186 93° East 348 400 28,700 1,150 Climbing Memphis Center
Tue 08:10:44 PM 34.8772 -91.2103 72° East 331 381 29,700 950 Climbing Memphis Center
Tue 08:11:44 PM 34.9175 -91.1244 60° Northeast 325 374 30,600 950 Climbing Memphis Center
Tue 08:12:44 PM 34.9639 -91.0261 60° Northeast 325 374 31,600 1,000 Climbing Memphis Center
Tue 08:13:44 PM 35.0103 -90.9250 61° Northeast 331 381 32,600 1,000 Climbing Memphis Center
Tue 08:14:44 PM 35.0586 -90.8214 60° Northeast 331 381 33,600 1,000 Climbing Memphis Center
Tue 08:15:44 PM 35.1069 -90.7150 61° Northeast 338 389 34,600 1,000 Climbing Memphis Center
Tue 08:16:44 PM 35.1614 -90.5958 61° Northeast 351 404 35,600 1,000 Climbing Memphis Center
Tue 08:17:44 PM 35.2117 -90.4842 61° Northeast 361 415 36,600 1,000 Climbing Memphis Center
Tue 08:18:44 PM 35.2619 -90.3750 61° Northeast 367 422 37,600 800 Climbing Memphis Center
Tue 08:19:44 PM 35.3139 -90.2631 60° Northeast 367 422 38,200 550 Climbing Memphis Center
Tue 08:20:44 PM 35.3658 -90.1458 61° Northeast 373 429 38,700 500 Climbing Memphis Center
Tue 08:21:44 PM 35.4178 -90.0258 62° Northeast 378 435 39,200 550 Climbing Memphis Center
Tue 08:22:44 PM 35.4717 -89.9083 61° Northeast 389 448 39,800 500 Climbing Memphis Center
Tue 08:23:44 PM 35.5172 -89.8011 62° Northeast 389 448 40,200 450 Climbing Memphis Center
Tue 08:24:44 PM 35.5708 -89.6806 61° Northeast 389 448 40,700 400 Climbing Memphis Center
Tue 08:25:44 PM 35.6264 -89.5525 62° Northeast 396 456 41,000 150 Climbing Memphis Center
Tue 08:26:44 PM 35.6817 -89.4242 62° Northeast 414 476 41,000  Level Memphis Center
Tue 08:27:44 PM 35.7369 -89.2803 65° Northeast 414 476 41,000  Level Memphis Center
Tue 08:28:44 PM 35.7942 -89.1517 61° Northeast 450 518 41,000  Level Memphis Center
Tue 08:29:44 PM 35.8553 -89.0125 62° Northeast 458 527 41,000  Level Memphis Center
Tue 08:30:44 PM 35.9161 -88.8706 62° Northeast 458 527 41,000  Level Memphis Center
Tue 08:31:44 PM 35.9811 -88.7256 61° Northeast 465 535 41,000  Level Memphis Center
Tue 08:32:44 PM 36.0436 -88.5806 62° Northeast 465 535 41,000  Level Memphis Center
Tue 08:33:44 PM 36.1042 -88.4353 63° Northeast 470 541 41,000  Level Memphis Center
Tue 08:34:44 PM 36.1664 -88.2925 62° Northeast 470 541 41,000  Level Memphis Center
Tue 08:35:44 PM 36.2264 -88.1494 62° Northeast 470 541 41,000  Level Memphis Center
Tue 08:36:44 PM 36.2944 -87.9958 61° Northeast 463 533 41,000  Level Memphis Center
Tue 08:37:44 PM 36.3564 -87.8522 62° Northeast 470 541 41,000  Level Memphis Center
Tue 08:38:44 PM 36.4178 -87.7058 62° Northeast 470 541 41,000  Level Memphis Center
Tue 08:39:44 PM 36.4772 -87.5594 63° Northeast 470 541 41,000  Level Memphis Center
Tue 08:40:44 PM 36.5386 -87.4153 62° Northeast 475 547 41,000  Level Memphis Center
Tue 08:41:44 PM 36.5975 -87.2683 63° Northeast 475 547 41,000  Level Memphis Center
Tue 08:42:44 PM 36.6583 -87.1186 63° Northeast 480 552 41,000  Level Memphis Center
Tue 08:43:44 PM 36.7131 -86.9869 63° Northeast 480 552 41,000  Level Memphis Center
Tue 08:44:44 PM 36.7717 -86.8422 63° Northeast 475 547 41,000  Level Memphis Center
Tue 08:45:44 PM 36.8278 -86.6969 64° Northeast 475 547 41,000  Level Memphis Center
Tue 08:46:44 PM 36.8861 -86.5544 63° Northeast 469 540 41,000  Level Memphis Center
Tue 08:47:44 PM 36.9456 -86.3906 66° East 464 534 41,000  Level Memphis Center
Tue 08:48:44 PM 36.9947 -86.2400 68° East 464 534 41,000  Level Memphis Center
Tue 08:49:44 PM 37.0458 -86.0892 67° East 469 540 41,000  Level Memphis Center
Tue 08:51:10 PM 37.1117 -85.8853 68° East 480 552 41,000  Level Indianapolis Center
Tue 08:52:11 PM 37.1322 -85.7172 81° East 482 555 41,000  Level Indianapolis Center
Tue 08:53:13 PM 37.1544 -85.5511 80° East 480 552 41,000  Level Indianapolis Center
Tue 08:54:15 PM 37.1769 -85.3797 81° East 481 554 41,000  Level Indianapolis Center
Tue 08:55:16 PM 37.2100 -85.1869 78° East 487 560 41,000  Level Indianapolis Center
Tue 08:56:18 PM 37.2589 -85.0317 68° East 480 552 41,000  Level Indianapolis Center
Tue 08:57:20 PM 37.3075 -84.8753 69° East 479 551 41,000  Level Indianapolis Center
Tue 08:58:21 PM 37.3553 -84.7178 69° East 481 554 41,000  Level Indianapolis Center
Tue 08:59:23 PM 37.4022 -84.5619 69° East 479 551 41,000  Level Indianapolis Center
Tue 09:00:25 PM 37.4492 -84.4042 69° East 478 550 41,000  Level Indianapolis Center
Tue 09:01:26 PM 37.4953 -84.2475 70° East 476 548 41,000  Level Indianapolis Center
Tue 09:02:28 PM 37.5456 -84.0617 71° East 478 550 41,000  Level Indianapolis Center
Tue 09:03:30 PM 37.5886 -83.9039 71° East 476 548 41,000  Level Indianapolis Center
Tue 09:04:32 PM 37.6308 -83.7458 71° East 473 544 41,000  Level Indianapolis Center
Tue 09:05:33 PM 37.6739 -83.5864 71° East 477 549 41,000  Level Indianapolis Center
Tue 09:06:35 PM 37.7164 -83.4239 72° East 487 560 41,000  Level Indianapolis Center
Tue 09:07:36 PM 37.7589 -83.2650 71° East 481 554 41,000  Level Indianapolis Center
Tue 09:08:38 PM 37.8025 -83.0994 72° East 492 566 41,000  Level Indianapolis Center
Tue 09:09:39 PM 37.8433 -82.9375 72° East 485 558 41,000  Level Indianapolis Center
Tue 09:10:41 PM 37.8925 -82.7528 71° East 478 550 41,000  Level Indianapolis Center
Tue 09:11:43 PM 37.9350 -82.5892 72° East 485 558 41,000  Level Indianapolis Center
Tue 09:12:44 PM 37.9761 -82.4256 72° East 485 558 41,000  Level Indianapolis Center
Tue 09:13:46 PM 38.0175 -82.2636 72° East 483 556 41,000  Level Indianapolis Center
Tue 09:14:47 PM 38.0583 -82.1019 72° East 490 564 41,000  Level Indianapolis Center
Tue 09:15:49 PM 38.0994 -81.9372 72° East 491 565 41,000  Level Indianapolis Center
Tue 09:16:50 PM 38.1397 -81.7739 73° East 488 562 41,000  Level Indianapolis Center
Tue 09:17:52 PM 38.1803 -81.6097 73° East 489 563 41,000  Level Indianapolis Center
Tue 09:18:53 PM 38.2272 -81.4128 73° East 489 563 41,000  Level Indianapolis Center
Tue 09:19:55 PM 38.2769 -81.2550 68° East 489 563 41,000  Level Indianapolis Center
Tue 09:20:56 PM 38.3394 -81.1081 61° Northeast 479 551 41,000  Level Indianapolis Center
Tue 09:21:58 PM 38.3753 -80.9450 74° East 490 564 41,000  Level Indianapolis Center
Tue 09:23:00 PM 38.3869 -80.7719 85° East 493 567 41,000  Level Indianapolis Center
Tue 09:24:01 PM 38.4014 -80.5992 84° East 493 567 41,000  Level Indianapolis Center
Tue 09:25:03 PM 38.4203 -80.4131 83° East 494 568 41,000  Level Indianapolis Center
Tue 09:25:55 PM 38.4364 -80.2756 81° East 488 562 41,000  Level Washington Center
Tue 09:26:56 PM 38.4542 -80.0858 83° East 488 562 41,000 -252 Level Washington Center
Tue 09:27:54 PM 38.4731 -79.9119 82° East 488 562 40,500 -1,475 Descending Washington Center
Tue 09:28:54 PM 38.4878 -79.7322 84° East 498 573 38,100 -2,380 Descending Washington Center
Tue 09:29:55 PM 38.5042 -79.5528 83° East 503 579 35,700 -2,331 Descending Washington Center
Tue 09:30:55 PM 38.5197 -79.3892 83° East 503 579 33,400 -2,269 Descending Washington Center
Tue 09:31:54 PM 38.5317 -79.2119 85° East 503 579 31,200 -2,200 Descending Washington Center
Tue 09:32:55 PM 38.5494 -79.0322 83° East 508 585 29,000 -2,118 Descending Washington Center
Tue 09:33:53 PM 38.5628 -78.8550 84° East 503 579 27,000 -1,513 Descending Washington Center
Tue 09:34:54 PM 38.5756 -78.6828 85° East 498 573 26,000 -843 Descending Washington Center
Tue 09:35:54 PM 38.5861 -78.5158 85° East 485 558 25,300 -843 Descending Washington Center
Tue 09:36:55 PM 38.6003 -78.3464 84° East 473 544 24,300 -908 Descending Washington Center
Tue 09:37:53 PM 38.6103 -78.1822 85° East 473 544 23,500 -1,462 Descending Washington Center
Tue 09:38:54 PM 38.6219 -78.0206 85° East 468 539 21,400 -1,967 Descending Washington Center
Tue 09:39:55 PM 38.6333 -77.8667 85° East 453 521 19,500 -1,210 Descending Washington Center
Tue 09:40:53 PM 38.6444 -77.7128 85° East 439 505 19,000 -958 Descending Washington Center
Tue 09:41:54 PM 38.6533 -77.5642 86° East 426 490 17,600  Descending Washington Center
Tue 09:42:54 PM 38.6644 -77.3917 85° East 421 484 19,000 -800 Climbing Washington Center
Tue 09:43:54 PM 38.6725 -77.2694 85° East 416 479 16,000 -1,934 Descending Washington Center
Tue 09:44:55 PM 38.6806 -77.1261 86° East 406 467 15,100 -1,361 Descending Washington Center
Tue 09:45:53 PM 38.6908 -76.9719 85° East 401 461 13,300 -1,664 Descending Washington Center
Tue 09:46:54 PM 38.6983 -76.8367 86° East 396 456 11,800 -1,140 Descending Washington Center
Tue 09:47:54 PM 38.7225 -76.7119 76° East 379 436 11,000 -333 Descending Washington Center
Tue 09:49:18 PM 38.7833 -76.5500 64° Northeast 368 423 11,000  Level Potomac TRACON
Tue 09:50:18 PM 38.8500 -76.4500 49° Northeast 362 417 11,000 -500 Level Potomac TRACON
Tue 09:51:18 PM 38.9333 -76.3667 38° Northeast 323 372 10,000 -1,700 Descending Potomac TRACON
Tue 09:52:18 PM 38.9833 -76.3000 46° Northeast 283 326 7,600 -2,400 Descending Potomac TRACON
Tue 09:53:18 PM 39.0500 -76.2500 30° Northeast 278 320 5,200 -1,250 Descending Potomac TRACON
Tue 09:54:18 PM 39.1167 -76.1833 38° Northeast 272 313 5,100 -50 Descending Potomac TRACON
Tue 09:55:18 PM 39.1667 -76.1167 46° Northeast 270 311 5,100  Level Potomac TRACON
Tue 09:56:18 PM 39.2333 -76.0667 30° Northeast 275 316 5,100  Level Potomac TRACON
Tue 09:57:18 PM 39.2833 -76.0000 46° Northeast 274 315 5,100  Level Potomac TRACON
Tue 09:58:18 PM 39.3333 -75.9333 46° Northeast 276 318 5,100  Level Potomac TRACON
Tue 09:59:18 PM 39.3833 -75.8500 52° Northeast 274 315 5,100 -400 Level Potomac TRACON
Tue 10:00:18 PM 39.4500 -75.7833 38° Northeast 263 303 4,300 -900 Descending Potomac TRACON
Tue 10:01:18 PM 39.5000 -75.7167 46° Northeast 260 299 3,300 -1,000 Descending Potomac TRACON
Tue 10:02:18 PM 39.5500 -75.6667 38° Northeast 246 283 2,300 -800 Descending Potomac TRACON
Tue 10:03:18 PM 39.6000 -75.6167 38° Northeast 219 252 1,700 -550 Descending Potomac TRACON
Tue 10:04:18 PM 39.6500 -75.6000 14° North 191 220 1,200 -500 Descending Potomac TRACON
Tue 10:06:00 PM 39.6667 -75.6000 38° Northeast  Level FlightAware Approximate
Tue 10:13:00 PM 39.6787 -75.6066 38° Northeast  Level Estimated
Tue 10:14:00 PM 39.6787 -75.6066 38° Northeast  Level Estimated
Tue 10:15:00 PM 39.6787 -75.6066 38° Northeast  Level Estimated

Login

Don't have an account? Register now (free) for customized features, flight alerts, and more!